createdAt,value
2023-02-03T00:00:52.744Z,-5.18
2023-02-03T00:02:58.135Z,-5.21
2023-02-03T00:05:00.774Z,-5.19
2023-02-03T00:07:03.882Z,-5.19
2023-02-03T00:09:06.653Z,-5.12
2023-02-03T00:11:09.363Z,-5.08
2023-02-03T00:13:12.399Z,-5.07
2023-02-03T00:15:15.162Z,-5.08
2023-02-03T00:17:17.833Z,-5.10
2023-02-03T00:19:20.542Z,-5.16
2023-02-03T00:21:23.192Z,-5.18
2023-02-03T00:23:26.307Z,-5.17
2023-02-03T00:25:28.948Z,-5.16
2023-02-03T00:27:32.846Z,-5.13
2023-02-03T00:29:35.482Z,-5.19
2023-02-03T00:31:38.221Z,-5.15
2023-02-03T00:33:41.012Z,-5.21
2023-02-03T00:35:43.777Z,-5.22
2023-02-03T00:37:52.578Z,-5.28
2023-02-03T00:39:55.337Z,-5.28
2023-02-03T00:41:58.304Z,-5.28
2023-02-03T00:44:00.951Z,-5.35
2023-02-03T00:46:03.724Z,-5.30
2023-02-03T00:48:06.616Z,-5.31
2023-02-03T00:50:10.708Z,-5.31
2023-02-03T00:52:13.395Z,-5.32
2023-02-03T00:54:16.208Z,-5.25
2023-02-03T00:56:18.840Z,-5.22
2023-02-03T00:58:21.929Z,-5.23
2023-02-03T01:00:24.955Z,-5.28
2023-02-03T01:02:27.732Z,-5.36
2023-02-03T01:04:30.513Z,-5.36
2023-02-03T01:06:33.268Z,-5.38
2023-02-03T01:08:35.918Z,-5.33
2023-02-03T01:10:39.446Z,-5.29
2023-02-03T01:12:42.133Z,-5.29
2023-02-03T01:14:44.800Z,-5.27
2023-02-03T01:16:47.621Z,-5.25
2023-02-03T01:18:51.243Z,-5.27
2023-02-03T01:20:53.914Z,-5.28
2023-02-03T01:22:56.570Z,-5.26
2023-02-03T01:24:59.230Z,-5.28
2023-02-03T01:27:01.911Z,-5.38
2023-02-03T01:29:04.599Z,-5.34
2023-02-03T01:31:14.618Z,-5.36
2023-02-03T01:33:17.452Z,-5.42
2023-02-03T01:35:20.086Z,-5.48
2023-02-03T01:37:22.785Z,-5.47
2023-02-03T01:39:26.624Z,-5.51
2023-02-03T01:41:32.891Z,-5.47
2023-02-03T01:43:38.904Z,-5.42
2023-02-03T01:45:41.758Z,-5.35
2023-02-03T01:47:50.610Z,-5.41
2023-02-03T01:50:00.320Z,-5.49
2023-02-03T01:52:04.319Z,-5.49
2023-02-03T01:54:19.015Z,-5.43
2023-02-03T01:56:22.813Z,-5.43
2023-02-03T01:58:32.199Z,-5.36
2023-02-03T02:00:35.106Z,-5.38
2023-02-03T02:02:37.946Z,-5.38
2023-02-03T02:04:55.994Z,-5.44
2023-02-03T02:06:59.552Z,-5.41
2023-02-03T02:09:02.510Z,-5.40
2023-02-03T02:11:07.312Z,-5.42
2023-02-03T02:13:10.173Z,-5.49
2023-02-03T02:15:13.043Z,-5.44
2023-02-03T02:17:37.383Z,-5.41
2023-02-03T02:20:04.685Z,-5.50
2023-02-03T02:23:04.584Z,-5.50
2023-02-03T02:25:28.055Z,-5.49
2023-02-03T02:27:42.647Z,-5.48
2023-02-03T02:30:22.388Z,-5.50
2023-02-03T02:32:39.807Z,-5.57
2023-02-03T02:35:07.628Z,-5.59
2023-02-03T02:37:28.455Z,-5.57
2023-02-03T02:39:40.332Z,-5.62
2023-02-03T02:41:45.066Z,-5.65
2023-02-03T02:43:59.843Z,-5.63
2023-02-03T02:46:23.286Z,-5.58
2023-02-03T02:48:47.559Z,-5.55
2023-02-03T02:50:54.151Z,-5.56
2023-02-03T02:52:58.169Z,-5.55
2023-02-03T02:55:05.834Z,-5.56
2023-02-03T02:57:12.174Z,-5.62
2023-02-03T02:59:15.641Z,-5.64
2023-02-03T03:01:19.377Z,-5.59
2023-02-03T03:03:24.394Z,-5.55
2023-02-03T03:05:28.481Z,-5.50
2023-02-03T03:07:35.670Z,-5.49
2023-02-03T03:10:01.506Z,-5.49
2023-02-03T03:12:07.550Z,-5.51
2023-02-03T03:14:13.179Z,-5.58
2023-02-03T03:16:18.499Z,-5.60
2023-02-03T03:18:28.989Z,-5.60
2023-02-03T03:20:33.263Z,-5.57
2023-02-03T03:22:43.676Z,-5.53
2023-02-03T03:24:50.718Z,-5.50
2023-02-03T03:27:02.795Z,-5.49
2023-02-03T03:29:13.455Z,-5.48
2023-02-03T03:31:19.407Z,-5.55
2023-02-03T03:33:23.315Z,-5.54
2023-02-03T03:35:33.247Z,-5.56
2023-02-03T03:37:42.036Z,-5.53
2023-02-03T03:40:26.265Z,-5.53
2023-02-03T03:42:36.060Z,-5.55
2023-02-03T03:44:48.521Z,-5.57
2023-02-03T03:47:01.358Z,-5.55
2023-02-03T03:49:06.448Z,-5.54
2023-02-03T03:51:15.521Z,-5.54
2023-02-03T03:53:20.001Z,-5.55
2023-02-03T03:55:23.073Z,-5.58
2023-02-03T03:57:40.430Z,-5.58
2023-02-03T03:59:48.100Z,-5.59
2023-02-03T04:01:52.643Z,-5.54
2023-02-03T04:04:01.034Z,-5.54
2023-02-03T04:06:04.160Z,-5.57
2023-02-03T04:08:07.268Z,-5.54
2023-02-03T04:10:39.033Z,-5.52
2023-02-03T04:12:41.694Z,-5.44
2023-02-03T04:14:44.329Z,-5.46
2023-02-03T04:16:47.007Z,-5.55
2023-02-03T04:18:49.671Z,-5.47
2023-02-03T04:20:52.314Z,-5.49
2023-02-03T04:22:55.238Z,-5.49
2023-02-03T04:25:01.333Z,-5.47
2023-02-03T04:27:06.003Z,-5.44
2023-02-03T04:29:09.031Z,-5.46
2023-02-03T04:31:11.753Z,-5.46
2023-02-03T04:33:14.522Z,-5.46
2023-02-03T04:35:17.236Z,-5.45
2023-02-03T04:37:21.284Z,-5.44
2023-02-03T04:39:23.985Z,-5.50
2023-02-03T04:41:26.633Z,-5.46
2023-02-03T04:43:29.237Z,-5.46
2023-02-03T04:45:31.967Z,-5.43
2023-02-03T04:47:34.591Z,-5.42
2023-02-03T04:49:37.227Z,-5.46
2023-02-03T04:51:39.842Z,-5.50
2023-02-03T04:53:42.442Z,-5.45
2023-02-03T04:55:49.235Z,-5.38
2023-02-03T04:57:56.227Z,-5.38
2023-02-03T04:59:58.852Z,-5.38
2023-02-03T05:02:04.708Z,-5.36
2023-02-03T05:04:07.325Z,-5.35
2023-02-03T05:06:10.002Z,-5.34
2023-02-03T05:08:13.008Z,-5.31
2023-02-03T05:10:16.129Z,-5.26
2023-02-03T05:12:18.829Z,-5.24
2023-02-03T05:14:21.772Z,-5.22
2023-02-03T05:16:24.584Z,-5.21
2023-02-03T05:18:27.308Z,-5.16
2023-02-03T05:20:29.954Z,-5.15
2023-02-03T05:22:32.885Z,-5.18
2023-02-03T05:24:35.540Z,-5.32
2023-02-03T05:26:38.605Z,-5.07
2023-02-03T05:28:41.373Z,-4.99
2023-02-03T05:30:44.058Z,-4.98
2023-02-03T05:32:46.841Z,-4.96
2023-02-03T05:34:49.538Z,-4.88
2023-02-03T05:36:52.123Z,-4.85
2023-02-03T05:38:54.809Z,-4.87
2023-02-03T05:41:16.004Z,-4.85
2023-02-03T05:43:19.357Z,-4.87
2023-02-03T05:45:21.991Z,-4.85
2023-02-03T05:47:24.646Z,-4.82
2023-02-03T05:49:27.391Z,-4.76
2023-02-03T05:51:30.039Z,-4.75
2023-02-03T05:53:32.672Z,-4.69
2023-02-03T05:55:37.958Z,-4.63
2023-02-03T05:57:40.628Z,-4.60
2023-02-03T05:59:43.276Z,-4.58
2023-02-03T06:01:45.978Z,-4.52
2023-02-03T06:03:49.154Z,-4.48
2023-02-03T06:05:51.925Z,-4.43
2023-02-03T06:07:55.027Z,-4.44
2023-02-03T06:09:57.679Z,-4.38
2023-02-03T06:12:00.527Z,-4.42
2023-02-03T06:14:04.173Z,-4.40
2023-02-03T06:16:07.116Z,-4.39
2023-02-03T06:18:09.997Z,-4.38
2023-02-03T06:20:14.267Z,-4.34
2023-02-03T06:22:16.899Z,-4.30
2023-02-03T06:24:19.639Z,-4.30
2023-02-03T06:26:22.353Z,-4.38
2023-02-03T06:28:25.085Z,-4.23
2023-02-03T06:30:28.161Z,-4.20
2023-02-03T06:32:31.084Z,-4.12
2023-02-03T06:34:34.164Z,-4.12
2023-02-03T06:36:36.897Z,-4.08
2023-02-03T06:38:39.610Z,-4.01
2023-02-03T06:40:42.303Z,-3.93
2023-02-03T06:42:48.499Z,-3.83
2023-02-03T06:44:51.246Z,-3.76
2023-02-03T06:46:53.931Z,-3.75
2023-02-03T06:48:57.062Z,-3.62
2023-02-03T06:50:59.739Z,-3.53
2023-02-03T06:53:02.424Z,-3.47
2023-02-03T06:55:05.708Z,-3.42
2023-02-03T06:57:08.684Z,-3.33
2023-02-03T06:59:11.353Z,-3.29
2023-02-03T07:01:15.080Z,-3.24
2023-02-03T07:03:17.769Z,-3.19
2023-02-03T07:05:20.509Z,-3.16
2023-02-03T07:07:23.154Z,-3.13
2023-02-03T07:09:25.783Z,-3.02
2023-02-03T07:11:28.818Z,-3.03
2023-02-03T07:13:31.528Z,-2.97
2023-02-03T07:15:34.399Z,-2.93
2023-02-03T07:17:37.248Z,-2.91
2023-02-03T07:19:39.938Z,-2.86
2023-02-03T07:21:42.599Z,-2.83
2023-02-03T07:23:48.690Z,-2.68
2023-02-03T07:25:51.365Z,-2.59
2023-02-03T07:27:54.529Z,-2.50
2023-02-03T07:29:57.322Z,-2.44
2023-02-03T07:32:02.810Z,-2.37
2023-02-03T07:34:06.580Z,-2.39
2023-02-03T07:36:10.770Z,-2.34
2023-02-03T07:38:13.420Z,-2.36
2023-02-03T07:40:17.582Z,-2.33
2023-02-03T07:42:20.303Z,-2.35
2023-02-03T07:44:22.929Z,-2.34
2023-02-03T07:46:25.592Z,-2.28
2023-02-03T07:48:28.393Z,-2.30
2023-02-03T07:50:31.368Z,-2.39
2023-02-03T07:52:34.078Z,-2.41
2023-02-03T07:54:36.744Z,-2.50
2023-02-03T07:56:39.382Z,-2.46
2023-02-03T07:58:42.076Z,-2.42
2023-02-03T08:00:45.045Z,-2.37
2023-02-03T08:02:47.854Z,-2.37
2023-02-03T08:04:50.583Z,-2.38
2023-02-03T08:06:53.331Z,-2.31
2023-02-03T08:08:56.034Z,-2.27
2023-02-03T08:10:58.637Z,-2.22
2023-02-03T08:13:01.519Z,-2.16
2023-02-03T08:15:05.355Z,-2.14
2023-02-03T08:17:08.015Z,-2.17
2023-02-03T08:19:11.287Z,-2.24
2023-02-03T08:21:14.005Z,-2.38
2023-02-03T08:23:17.102Z,-2.33
2023-02-03T08:25:22.483Z,-2.31
2023-02-03T08:27:25.375Z,-2.23
2023-02-03T08:29:28.100Z,-2.19
2023-02-03T08:31:32.032Z,-2.19
2023-02-03T08:33:34.875Z,-2.26
2023-02-03T08:35:37.629Z,-2.26
2023-02-03T08:37:40.321Z,-2.24
2023-02-03T08:39:43.660Z,-2.24
2023-02-03T08:41:46.295Z,-2.23
2023-02-03T08:43:49.643Z,-2.32
2023-02-03T08:45:52.304Z,-2.22
2023-02-03T08:47:54.958Z,-2.13
2023-02-03T08:49:58.180Z,-2.26
2023-02-03T08:52:00.894Z,-2.16
2023-02-03T08:54:04.334Z,-2.16
2023-02-03T08:56:08.924Z,-2.00
2023-02-03T08:58:11.631Z,-2.02
2023-02-03T09:00:14.768Z,-2.06
2023-02-03T09:02:19.692Z,-2.00
2023-02-03T09:04:24.901Z,-1.98
2023-02-03T09:06:27.764Z,-2.03
2023-02-03T09:08:30.514Z,-2.08
2023-02-03T09:10:33.190Z,-1.99
2023-02-03T09:12:35.837Z,-2.07
2023-02-03T09:14:38.972Z,-2.09
2023-02-03T09:16:41.677Z,-2.08
2023-02-03T09:18:45.820Z,-2.11
2023-02-03T09:20:48.504Z,-2.01
2023-02-03T09:22:51.423Z,-1.99
2023-02-03T09:24:54.500Z,-1.96
2023-02-03T09:26:57.559Z,-1.98
2023-02-03T09:29:00.287Z,-1.99
2023-02-03T09:31:17.968Z,-1.86
2023-02-03T09:33:20.862Z,-1.88
2023-02-03T09:35:24.121Z,-1.85
2023-02-03T09:37:29.918Z,-1.79
2023-02-03T09:39:33.208Z,-1.79
2023-02-03T09:42:07.014Z,-1.83
2023-02-03T09:44:15.876Z,-1.81
2023-02-03T09:46:24.499Z,-1.74
2023-02-03T09:48:35.431Z,-1.64
2023-02-03T09:50:41.475Z,-1.69
2023-02-03T09:55:41.771Z,-1.77
2023-02-03T09:58:05.231Z,-1.82
2023-02-03T10:00:22.855Z,-1.92
2023-02-03T10:02:33.752Z,-1.88
2023-02-03T10:04:48.316Z,-1.83
2023-02-03T10:06:53.056Z,-1.88
2023-02-03T10:09:29.777Z,-1.87
2023-02-03T10:12:01.380Z,-1.85
2023-02-03T10:14:31.780Z,-1.98
2023-02-03T10:17:09.853Z,-1.90
2023-02-03T10:19:28.801Z,-1.91
2023-02-03T10:21:40.652Z,-1.91
2023-02-03T10:23:50.252Z,-2.02
2023-02-03T10:26:02.170Z,-1.97
2023-02-03T10:28:15.698Z,-1.92
2023-02-03T10:30:46.038Z,-1.85
2023-02-03T10:33:14.710Z,-1.86
2023-02-03T10:35:18.363Z,-1.86
2023-02-03T10:37:47.737Z,-1.82
2023-02-03T10:39:53.221Z,-1.72
2023-02-03T10:41:56.415Z,-1.76
2023-02-03T10:44:02.750Z,-1.68
2023-02-03T10:46:05.544Z,-1.65
2023-02-03T10:48:16.076Z,-1.66
2023-02-03T10:50:25.813Z,-1.68
2023-02-03T10:52:32.012Z,-1.81
2023-02-03T10:54:36.179Z,-1.77
2023-02-03T10:56:41.219Z,-1.80
2023-02-03T10:58:59.227Z,-1.76
2023-02-03T11:01:12.480Z,-1.74
2023-02-03T11:03:26.157Z,-1.75
2023-02-03T11:05:29.230Z,-1.80
2023-02-03T11:07:31.961Z,-1.83
2023-02-03T11:09:38.070Z,-1.84
2023-02-03T11:11:42.208Z,-1.80
2023-02-03T11:13:44.952Z,-1.79
2023-02-03T11:15:58.914Z,-1.78
2023-02-03T11:18:01.806Z,-1.79
2023-02-03T11:20:16.142Z,-1.79
2023-02-03T11:22:32.136Z,-1.85
2023-02-03T11:24:40.050Z,-1.92
2023-02-03T11:26:57.510Z,-1.98
2023-02-03T11:29:02.613Z,-1.99
2023-02-03T11:31:05.553Z,-2.02
2023-02-03T11:33:30.383Z,-1.99
2023-02-03T11:35:34.907Z,-2.01
2023-02-03T11:37:42.705Z,-2.00
2023-02-03T11:39:45.565Z,-1.96
2023-02-03T11:41:49.320Z,-1.98
2023-02-03T11:43:56.454Z,-2.04
2023-02-03T11:46:08.189Z,-2.04
2023-02-03T11:48:11.000Z,-2.13
2023-02-03T11:50:35.454Z,-2.19
2023-02-03T11:53:05.102Z,-2.22
2023-02-03T11:55:27.481Z,-2.25
2023-02-03T11:57:41.254Z,-2.32
2023-02-03T12:00:13.549Z,-2.34
2023-02-03T12:02:51.866Z,-2.46
2023-02-03T12:05:15.997Z,-2.49
2023-02-03T12:07:55.185Z,-2.59
2023-02-03T12:10:26.951Z,-2.65
2023-02-03T12:12:47.823Z,-2.68
2023-02-03T12:15:38.941Z,-2.58
2023-02-03T12:18:12.841Z,-2.62
2023-02-03T12:20:27.827Z,-2.64
2023-02-03T12:22:57.137Z,-2.65
2023-02-03T12:25:26.760Z,-2.70
2023-02-03T12:28:32.864Z,-2.75
2023-02-03T12:30:44.956Z,-2.85
2023-02-03T12:32:51.688Z,-2.84
2023-02-03T12:35:03.500Z,-2.92
2023-02-03T12:37:10.615Z,-2.98
2023-02-03T12:39:30.904Z,-3.04
2023-02-03T12:41:38.513Z,-3.02
2023-02-03T12:43:49.517Z,-2.98
2023-02-03T12:46:01.142Z,-2.98
2023-02-03T12:48:17.970Z,-2.98
2023-02-03T12:50:35.493Z,-3.01
2023-02-03T12:53:03.495Z,-3.10
2023-02-03T12:55:16.403Z,-3.10
2023-02-03T12:57:22.533Z,-3.04
2023-02-03T12:59:30.746Z,-3.00
2023-02-03T13:01:46.761Z,-2.95
2023-02-03T13:03:56.540Z,-2.91
2023-02-03T13:06:14.098Z,-2.98
2023-02-03T13:08:30.078Z,-3.00
2023-02-03T13:10:39.981Z,-2.98
2023-02-03T13:12:46.873Z,-2.98
2023-02-03T13:15:27.720Z,-2.94
2023-02-03T13:17:42.221Z,-2.97
2023-02-03T13:19:50.329Z,-3.04
2023-02-03T13:21:53.513Z,-3.06
2023-02-03T13:23:57.435Z,-3.05
2023-02-03T13:26:18.752Z,-3.03
2023-02-03T13:28:48.582Z,-3.06
2023-02-03T13:30:51.326Z,-3.04
2023-02-03T13:33:12.394Z,-3.08
2023-02-03T13:35:40.558Z,-3.13
2023-02-03T13:38:02.121Z,-3.26
2023-02-03T13:40:36.964Z,-3.33
2023-02-03T13:42:46.086Z,-3.46
2023-02-03T13:44:53.940Z,-3.47
2023-02-03T13:46:59.547Z,-3.51
2023-02-03T13:49:05.107Z,-3.56
2023-02-03T13:51:20.806Z,-3.66
2023-02-03T13:53:29.759Z,-3.77
2023-02-03T13:55:43.228Z,-3.79
2023-02-03T13:57:52.776Z,-3.83
2023-02-03T13:59:55.554Z,-3.85
2023-02-03T14:02:24.625Z,-3.92
2023-02-03T14:04:27.217Z,-4.01
2023-02-03T14:06:38.885Z,-4.06
2023-02-03T14:08:41.458Z,-4.13
2023-02-03T14:10:44.392Z,-4.13
2023-02-03T14:12:49.790Z,-4.16
2023-02-03T14:14:52.396Z,-4.19
2023-02-03T14:16:55.560Z,-4.30
2023-02-03T14:18:58.180Z,-4.29
2023-02-03T14:21:17.940Z,-4.36
2023-02-03T14:23:28.481Z,-4.43
2023-02-03T14:25:33.121Z,-4.46
2023-02-03T14:27:35.831Z,-4.53
2023-02-03T14:29:38.460Z,-4.58
2023-02-03T14:32:02.991Z,-4.58
2023-02-03T14:34:14.641Z,-4.62
2023-02-03T14:36:43.370Z,-4.61
2023-02-03T14:38:46.213Z,-4.64
2023-02-03T14:41:03.005Z,-4.62
2023-02-03T14:43:17.487Z,-4.62
2023-02-03T14:45:40.462Z,-4.62
2023-02-03T14:47:57.886Z,-4.64
2023-02-03T14:50:08.202Z,-4.72
2023-02-03T14:52:41.684Z,-4.76
2023-02-03T14:54:59.409Z,-4.79
2023-02-03T14:57:23.939Z,-4.84
2023-02-03T14:59:38.963Z,-4.90
2023-02-03T15:01:41.607Z,-4.91
2023-02-03T15:04:12.954Z,-4.95
2023-02-03T15:06:38.449Z,-4.95
2023-02-03T15:08:46.817Z,-4.97
2023-02-03T15:10:49.849Z,-4.97
2023-02-03T15:12:58.578Z,-4.99
2023-02-03T15:15:24.059Z,-5.01
2023-02-03T15:17:30.937Z,-5.06
2023-02-03T15:19:41.040Z,-5.05
2023-02-03T15:21:44.294Z,-5.04
2023-02-03T15:23:49.563Z,-5.07
2023-02-03T15:25:55.660Z,-4.97
2023-02-03T15:28:22.504Z,-4.97
2023-02-03T15:30:27.995Z,-4.95
2023-02-03T15:32:39.749Z,-4.94
2023-02-03T15:34:50.741Z,-4.87
2023-02-03T15:36:57.772Z,-4.84
2023-02-03T15:39:33.712Z,-4.81
2023-02-03T15:41:36.794Z,-4.81
2023-02-03T15:43:43.128Z,-4.80
2023-02-03T15:45:58.975Z,-4.78
2023-02-03T15:48:05.499Z,-4.80
2023-02-03T15:50:17.067Z,-4.78
2023-02-03T15:52:23.450Z,-4.73
2023-02-03T15:54:31.454Z,-4.71
2023-02-03T15:56:45.208Z,-4.72
2023-02-03T15:58:49.767Z,-4.71
2023-02-03T16:01:02.583Z,-4.60
2023-02-03T16:03:16.447Z,-4.68
2023-02-03T16:05:49.836Z,-4.66
2023-02-03T16:07:53.253Z,-4.65
2023-02-03T16:09:58.096Z,-4.68
2023-02-03T16:12:06.265Z,-4.65
2023-02-03T16:14:12.386Z,-4.72
2023-02-03T16:16:21.362Z,-4.70
2023-02-03T16:18:24.479Z,-4.68
2023-02-03T16:20:33.130Z,-4.74
2023-02-03T16:23:00.897Z,-4.76
2023-02-03T16:25:41.974Z,-4.76
2023-02-03T16:28:15.857Z,-4.80
2023-02-03T16:30:42.183Z,-4.78
2023-02-03T16:33:18.576Z,-4.81
2023-02-03T16:35:40.132Z,-4.77
2023-02-03T16:38:03.079Z,-4.82
2023-02-03T16:40:24.812Z,-4.80
2023-02-03T16:42:54.195Z,-4.80
2023-02-03T16:45:17.485Z,-4.77
2023-02-03T16:47:47.216Z,-4.77
2023-02-03T16:50:08.447Z,-4.77
2023-02-03T16:52:11.117Z,-4.75
2023-02-03T16:54:15.613Z,-4.77
2023-02-03T16:56:19.388Z,-4.79
2023-02-03T16:58:22.361Z,-4.79
2023-02-03T17:00:25.299Z,-4.82
2023-02-03T17:02:28.059Z,-4.85
2023-02-03T17:04:31.864Z,-4.85
2023-02-03T17:06:44.387Z,-4.82
2023-02-03T17:08:47.104Z,-4.83
2023-02-03T17:10:50.680Z,-4.80
2023-02-03T17:12:53.461Z,-4.83
2023-02-03T17:14:58.601Z,-4.84
2023-02-03T17:17:01.349Z,-4.82
2023-02-03T17:19:04.190Z,-4.85
2023-02-03T17:21:09.413Z,-4.86
2023-02-03T17:23:13.276Z,-4.80
2023-02-03T17:25:15.999Z,-4.80
2023-02-03T17:27:19.056Z,-4.82
2023-02-03T17:29:22.272Z,-4.86
2023-02-03T17:31:25.221Z,-4.90
2023-02-03T17:33:29.359Z,-4.82
2023-02-03T17:35:32.173Z,-4.78
2023-02-03T17:37:35.908Z,-4.78
2023-02-03T17:53:43.416Z,-4.78
2023-02-03T17:57:53.892Z,-4.84
2023-02-03T17:59:56.890Z,-4.77
2023-02-03T18:01:59.648Z,-4.77
2023-02-03T18:04:04.923Z,-4.76
2023-02-03T18:06:07.792Z,-4.74
2023-02-03T18:08:16.181Z,-4.68
2023-02-03T18:10:19.751Z,-4.71
2023-02-03T18:12:22.902Z,-4.69
2023-02-03T18:14:26.221Z,-4.69
2023-02-03T18:16:35.885Z,-4.71
2023-02-03T18:18:41.560Z,-4.73
2023-02-03T18:20:44.309Z,-4.77
2023-02-03T18:22:47.058Z,-4.73
2023-02-03T18:24:52.876Z,-4.79
2023-02-03T18:26:56.484Z,-4.75
2023-02-03T18:29:00.335Z,-4.75
2023-02-03T18:31:08.119Z,-4.75
2023-02-03T18:33:11.103Z,-4.76
2023-02-03T18:35:16.930Z,-4.77
2023-02-03T18:37:19.669Z,-4.74
2023-02-03T18:39:22.513Z,-4.77
2023-02-03T18:41:26.428Z,-4.75
2023-02-03T18:43:29.095Z,-4.76
2023-02-03T18:45:34.644Z,-4.72
2023-02-03T18:47:37.828Z,-4.75
2023-02-03T18:49:41.102Z,-4.69
2023-02-03T18:51:43.930Z,-4.72
2023-02-03T18:53:49.239Z,-4.69
2023-02-03T18:55:51.989Z,-4.71
2023-02-03T18:57:54.759Z,-4.71
2023-02-03T18:59:57.411Z,-4.71
2023-02-03T19:02:00.350Z,-4.65
2023-02-03T19:04:06.320Z,-4.66
2023-02-03T19:06:10.068Z,-4.64
2023-02-03T19:08:14.660Z,-4.69
2023-02-03T19:10:18.461Z,-4.72
2023-02-03T19:12:21.284Z,-4.75
2023-02-03T19:14:24.925Z,-4.68
2023-02-03T19:16:27.828Z,-4.71
2023-02-03T19:18:33.535Z,-4.73
2023-02-03T19:20:36.245Z,-4.72
2023-02-03T19:22:39.040Z,-4.77
2023-02-03T19:24:41.739Z,-4.69
2023-02-03T19:26:46.908Z,-4.70
2023-02-03T19:28:50.331Z,-4.70
2023-02-03T19:30:57.402Z,-4.67
2023-02-03T19:33:03.135Z,-4.67
2023-02-03T19:35:06.501Z,-4.69
2023-02-03T19:37:09.891Z,-4.68
2023-02-03T19:39:13.865Z,-4.66
2023-02-03T19:41:16.782Z,-4.65
2023-02-03T19:43:19.437Z,-4.59
2023-02-03T19:45:22.694Z,-4.58
2023-02-03T19:47:25.800Z,-4.59
2023-02-03T19:49:30.498Z,-4.62
2023-02-03T19:51:34.486Z,-4.58
2023-02-03T19:53:37.242Z,-4.59
2023-02-03T19:55:40.102Z,-4.54
2023-02-03T19:57:43.206Z,-4.56
2023-02-03T19:59:49.503Z,-4.58
2023-02-03T20:01:52.583Z,-4.56
2023-02-03T20:03:59.331Z,-4.57
2023-02-03T20:06:03.143Z,-4.59
2023-02-03T20:08:06.777Z,-4.56
2023-02-03T20:10:09.943Z,-4.61
2023-02-03T20:12:13.392Z,-4.63
2023-02-03T20:14:19.936Z,-4.59
2023-02-03T20:16:23.196Z,-4.60
2023-02-03T20:18:27.283Z,-4.65
2023-02-03T20:20:31.583Z,-4.63
2023-02-03T20:22:35.226Z,-4.64
2023-02-03T20:24:38.960Z,-4.64
2023-02-03T20:26:42.244Z,-4.62
2023-02-03T20:28:46.170Z,-4.62
2023-02-03T20:30:58.653Z,-4.61
2023-02-03T20:33:03.582Z,-4.63
2023-02-03T20:35:07.639Z,-4.65
2023-02-03T20:37:11.697Z,-4.63
2023-02-03T20:39:21.017Z,-4.68
2023-02-03T20:41:24.458Z,-4.70
2023-02-03T20:43:29.406Z,-4.68
2023-02-03T20:45:32.774Z,-4.69
2023-02-03T20:47:35.511Z,-4.69
2023-02-03T20:49:38.641Z,-4.66
2023-02-03T20:51:41.725Z,-4.67
2023-02-03T20:53:44.894Z,-4.67
2023-02-03T20:55:49.306Z,-4.63
2023-02-03T20:57:54.966Z,-4.66
2023-02-03T20:59:57.709Z,-4.63
2023-02-03T21:02:08.124Z,-4.62
2023-02-03T21:04:34.495Z,-4.61
2023-02-03T21:06:37.547Z,-4.64
2023-02-03T21:08:40.336Z,-4.61
2023-02-03T21:10:44.670Z,-4.53
2023-02-03T21:12:48.800Z,-4.44
2023-02-03T21:14:53.980Z,-4.44
2023-02-03T21:16:57.697Z,-4.44
2023-02-03T21:19:03.094Z,-4.42
2023-02-03T21:21:16.973Z,-4.47
2023-02-03T21:23:48.790Z,-4.50
2023-02-03T21:25:52.744Z,-4.51
2023-02-03T21:27:58.372Z,-4.52
2023-02-03T21:30:06.629Z,-4.51
2023-02-03T21:32:14.587Z,-4.54
2023-02-03T21:34:29.753Z,-4.54
2023-02-03T21:36:37.037Z,-4.49
2023-02-03T21:38:40.317Z,-4.51
2023-02-03T21:40:43.266Z,-4.58
2023-02-03T21:42:47.073Z,-4.58
2023-02-03T21:44:50.200Z,-4.62
2023-02-03T21:46:53.161Z,-4.62
2023-02-03T21:49:00.885Z,-4.64
2023-02-03T21:51:15.741Z,-4.65
2023-02-03T21:53:36.171Z,-4.65
2023-02-03T21:55:42.816Z,-4.68
2023-02-03T21:57:50.440Z,-4.69
2023-02-03T21:59:53.964Z,-4.68
2023-02-03T22:01:58.911Z,-4.66
2023-02-03T22:04:03.084Z,-4.71
2023-02-03T22:06:09.068Z,-4.64
2023-02-03T22:08:23.229Z,-4.64
2023-02-03T22:10:26.421Z,-4.66
2023-02-03T22:12:29.411Z,-4.67
2023-02-03T22:14:32.757Z,-4.68
2023-02-03T22:16:36.788Z,-4.64
2023-02-03T22:18:41.891Z,-4.63
2023-02-03T22:20:45.293Z,-4.63
2023-02-03T22:22:48.787Z,-4.65
2023-02-03T22:24:51.820Z,-4.63
2023-02-03T22:27:00.315Z,-4.63
2023-02-03T22:29:03.190Z,-4.62
2023-02-03T22:31:07.794Z,-4.60
2023-02-03T22:33:10.699Z,-4.62
2023-02-03T22:35:13.535Z,-4.61
2023-02-03T22:37:16.198Z,-4.61
2023-02-03T22:39:18.909Z,-4.63
2023-02-03T22:41:21.882Z,-4.60
2023-02-03T22:43:25.385Z,-4.59
2023-02-03T22:45:28.097Z,-4.57
2023-02-03T22:47:30.666Z,-4.55
2023-02-03T22:49:33.275Z,-4.56
2023-02-03T22:51:36.030Z,-4.55
2023-02-03T22:53:40.058Z,-4.53
2023-02-03T22:55:43.292Z,-4.56
2023-02-03T22:57:46.112Z,-4.55
2023-02-03T22:59:48.753Z,-4.53
2023-02-03T23:01:51.455Z,-4.56
2023-02-03T23:03:54.320Z,-4.51
2023-02-03T23:05:57.604Z,-4.50
2023-02-03T23:08:01.242Z,-4.53
2023-02-03T23:10:05.544Z,-4.50
2023-02-03T23:12:08.892Z,-4.49
2023-02-03T23:14:11.952Z,-4.50
2023-02-03T23:16:15.173Z,-4.46
2023-02-03T23:18:17.930Z,-4.44
2023-02-03T23:20:20.903Z,-4.43
2023-02-03T23:22:23.676Z,-4.47
2023-02-03T23:24:26.455Z,-4.48
2023-02-03T23:26:29.233Z,-4.46
2023-02-03T23:28:32.529Z,-4.46
2023-02-03T23:30:35.236Z,-4.46
2023-02-03T23:32:37.992Z,-4.47
2023-02-03T23:34:59.627Z,-4.55
2023-02-03T23:37:02.646Z,-4.49
2023-02-03T23:39:05.360Z,-4.50
2023-02-03T23:41:08.054Z,-4.46
2023-02-03T23:43:10.978Z,-4.47
2023-02-03T23:45:13.710Z,-4.45
2023-02-03T23:47:16.571Z,-4.42
2023-02-03T23:49:19.277Z,-4.44
2023-02-03T23:51:21.980Z,-4.46
2023-02-03T23:53:24.809Z,-4.45
2023-02-03T23:55:27.608Z,-4.44
2023-02-03T23:57:30.383Z,-4.48
2023-02-03T23:59:33.201Z,-4.49
